createdAt,value
2018-12-02T00:00:56.789Z,1006.65
2018-12-02T00:01:56.762Z,1006.63
2018-12-02T00:02:56.753Z,1006.62
2018-12-02T00:03:56.747Z,1006.60
2018-12-02T00:04:56.760Z,1006.57
2018-12-02T00:05:56.723Z,1006.52
2018-12-02T00:06:56.707Z,1006.50
2018-12-02T00:07:56.698Z,1006.48
2018-12-02T00:08:56.692Z,1006.47
2018-12-02T00:09:56.701Z,1006.41
2018-12-02T00:10:56.676Z,1006.43
2018-12-02T00:11:56.655Z,1006.45
2018-12-02T00:12:56.659Z,1006.45
2018-12-02T00:13:56.629Z,1006.40
2018-12-02T00:14:56.668Z,1006.36
2018-12-02T00:15:56.613Z,1006.42
2018-12-02T00:16:56.603Z,1006.44
2018-12-02T00:17:56.603Z,1006.42
2018-12-02T00:18:56.593Z,1006.42
2018-12-02T00:19:56.610Z,1006.40
2018-12-02T00:20:56.566Z,1006.31
2018-12-02T00:21:56.549Z,1006.34
2018-12-02T00:22:56.539Z,1006.38
2018-12-02T00:23:56.539Z,1006.37
2018-12-02T00:24:56.561Z,1006.40
2018-12-02T00:25:56.511Z,1006.39
2018-12-02T00:26:56.507Z,1006.39
2018-12-02T00:27:56.487Z,1006.38
2018-12-02T00:28:56.473Z,1006.34
2018-12-02T00:29:56.548Z,1006.36
2018-12-02T00:30:56.454Z,1006.37
2018-12-02T00:31:56.501Z,1006.33
2018-12-02T00:32:56.440Z,1006.29
2018-12-02T00:33:56.426Z,1006.29
2018-12-02T00:34:56.408Z,1006.25
2018-12-02T00:35:56.421Z,1006.14
2018-12-02T00:36:56.407Z,1006.18
2018-12-02T00:37:56.380Z,1006.15
2018-12-02T00:38:56.368Z,1006.13
2018-12-02T00:39:56.371Z,1006.13
2018-12-02T00:40:56.373Z,1006.13
2018-12-02T00:41:56.350Z,1006.13
2018-12-02T00:42:56.332Z,1006.10
2018-12-02T00:43:56.322Z,1006.14
2018-12-02T00:44:56.326Z,1006.14
2018-12-02T00:45:56.320Z,1006.15
2018-12-02T00:46:56.283Z,1006.13
2018-12-02T00:47:56.281Z,1006.14
2018-12-02T00:48:56.260Z,1006.12
2018-12-02T00:49:56.259Z,1006.20
2018-12-02T00:50:56.262Z,1006.17
2018-12-02T00:51:56.889Z,1006.20
2018-12-02T00:52:56.228Z,1006.15
2018-12-02T00:53:56.225Z,1006.15
2018-12-02T00:54:56.210Z,1006.13
2018-12-02T00:55:56.251Z,1006.16
2018-12-02T00:56:56.178Z,1006.15
2018-12-02T00:57:56.167Z,1006.13
2018-12-02T00:58:56.162Z,1006.13
2018-12-02T00:59:56.161Z,1006.16
2018-12-02T01:00:56.178Z,1006.13
2018-12-02T01:01:56.135Z,1006.13
2018-12-02T01:02:56.112Z,1006.02
2018-12-02T01:03:56.104Z,1006.04
2018-12-02T01:04:56.100Z,1006.05
2018-12-02T01:05:56.106Z,1006.05
2018-12-02T01:06:56.130Z,1006.05
2018-12-02T01:07:56.062Z,1006.04
2018-12-02T01:08:56.054Z,1006.06
2018-12-02T01:09:56.037Z,1006.01
2018-12-02T01:10:56.053Z,1006.05
2018-12-02T01:11:56.023Z,1005.99
2018-12-02T01:12:56.011Z,1006.03
2018-12-02T01:13:55.997Z,1006.01
2018-12-02T01:14:55.985Z,1006.00
2018-12-02T01:15:56.011Z,1005.97
2018-12-02T01:16:55.986Z,1005.94
2018-12-02T01:17:55.955Z,1005.99
2018-12-02T01:18:56.000Z,1005.94
2018-12-02T01:19:55.935Z,1005.88
2018-12-02T01:20:55.931Z,1005.98
2018-12-02T01:21:55.934Z,1005.94
2018-12-02T01:22:55.904Z,1005.94
2018-12-02T01:23:55.899Z,1005.93
2018-12-02T01:24:55.891Z,1005.91
2018-12-02T01:25:55.875Z,1005.94
2018-12-02T01:26:55.877Z,1005.94
2018-12-02T01:27:55.854Z,1005.88
2018-12-02T01:28:55.849Z,1005.87
2018-12-02T01:29:55.837Z,1005.87
2018-12-02T01:30:55.815Z,1005.91
2018-12-02T01:31:55.816Z,1005.87
2018-12-02T01:32:55.812Z,1005.87
2018-12-02T01:33:55.792Z,1005.80
2018-12-02T01:34:55.783Z,1005.77
2018-12-02T01:35:55.771Z,1005.79
2018-12-02T01:36:55.771Z,1005.69
2018-12-02T01:37:55.749Z,1005.71
2018-12-02T01:38:55.748Z,1005.69
2018-12-02T01:39:55.728Z,1005.65
2018-12-02T01:40:55.721Z,1005.69
2018-12-02T01:41:55.727Z,1005.67
2018-12-02T01:42:55.694Z,1005.65
2018-12-02T01:43:55.679Z,1005.67
2018-12-02T01:44:55.673Z,1005.64
2018-12-02T01:45:55.662Z,1005.64
2018-12-02T01:46:55.680Z,1005.62
2018-12-02T01:47:55.647Z,1005.59
2018-12-02T01:48:55.631Z,1005.61
2018-12-02T01:49:55.615Z,1005.57
2018-12-02T01:50:55.608Z,1005.57
2018-12-02T01:51:55.618Z,1005.58
2018-12-02T01:52:55.592Z,1005.57
2018-12-02T01:53:55.581Z,1005.52
2018-12-02T01:54:55.564Z,1005.55
2018-12-02T01:55:55.562Z,1005.50
2018-12-02T01:56:55.577Z,1005.48
2018-12-02T01:57:55.532Z,1005.45
2018-12-02T01:58:55.531Z,1005.45
2018-12-02T01:59:55.528Z,1005.47
2018-12-02T02:00:55.505Z,1005.42
2018-12-02T02:01:55.515Z,1005.34
2018-12-02T02:02:55.483Z,1005.34
2018-12-02T02:03:55.472Z,1005.33
2018-12-02T02:04:55.466Z,1005.34
2018-12-02T02:05:55.449Z,1005.31
2018-12-02T02:06:55.434Z,1005.26
2018-12-02T02:07:55.449Z,1005.26
2018-12-02T02:08:55.417Z,1005.24
2018-12-02T02:09:55.407Z,1005.19
2018-12-02T02:10:55.394Z,1005.19
2018-12-02T02:11:55.381Z,1005.20
2018-12-02T02:12:55.409Z,1005.17
2018-12-02T02:13:55.381Z,1005.20
2018-12-02T02:14:55.359Z,1005.10
2018-12-02T02:15:55.347Z,1005.14
2018-12-02T02:16:55.331Z,1005.10
2018-12-02T02:17:55.345Z,1005.12
2018-12-02T02:18:55.309Z,1005.10
2018-12-02T02:19:55.299Z,1005.14
2018-12-02T02:20:55.293Z,1005.08
2018-12-02T02:21:55.286Z,1005.05
2018-12-02T02:22:55.292Z,1005.04
2018-12-02T02:23:55.284Z,1005.05
2018-12-02T02:24:55.249Z,1005.04
2018-12-02T02:26:56.357Z,1005.13
2018-12-02T02:27:55.239Z,1005.05
2018-12-02T02:28:55.218Z,1005.07
2018-12-02T02:29:55.193Z,1005.08
2018-12-02T02:30:55.182Z,1005.07
2018-12-02T02:31:55.176Z,1005.04
2018-12-02T02:32:55.198Z,1004.96
2018-12-02T02:33:55.200Z,1004.91
2018-12-02T02:34:55.144Z,1004.88
2018-12-02T02:35:55.133Z,1004.78
2018-12-02T02:36:55.116Z,1004.76
2018-12-02T02:37:55.139Z,1004.75
2018-12-02T02:38:55.106Z,1004.68
2018-12-02T02:39:55.100Z,1004.65
2018-12-02T02:40:55.082Z,1004.58
2018-12-02T02:41:55.064Z,1004.55
2018-12-02T02:42:55.074Z,1004.55
2018-12-02T02:43:55.050Z,1004.56
2018-12-02T02:44:55.044Z,1004.54
2018-12-02T02:45:55.044Z,1004.48
2018-12-02T02:46:55.012Z,1004.53
2018-12-02T02:47:55.053Z,1004.55
2018-12-02T02:48:54.997Z,1004.52
2018-12-02T02:49:54.981Z,1004.46
2018-12-02T02:50:54.986Z,1004.43
2018-12-02T02:51:54.982Z,1004.43
2018-12-02T02:52:54.997Z,1004.43
2018-12-02T02:53:54.944Z,1004.38
2018-12-02T02:54:54.938Z,1004.37
2018-12-02T02:55:54.920Z,1004.42
2018-12-02T02:56:54.908Z,1004.36
2018-12-02T02:57:54.930Z,1004.36
2018-12-02T02:58:54.888Z,1004.35
2018-12-02T02:59:54.877Z,1004.36
2018-12-02T03:00:54.866Z,1004.37
2018-12-02T03:01:54.857Z,1004.36
2018-12-02T03:02:54.867Z,1004.35
2018-12-02T03:03:54.833Z,1004.36
2018-12-02T03:04:54.827Z,1004.33
2018-12-02T03:05:54.811Z,1004.31
2018-12-02T03:06:55.403Z,1004.30
2018-12-02T03:07:54.811Z,1004.26
2018-12-02T03:08:54.835Z,1004.23
2018-12-02T03:09:54.772Z,1004.24
2018-12-02T03:10:54.762Z,1004.20
2018-12-02T03:11:54.752Z,1004.19
2018-12-02T03:12:54.773Z,1004.24
2018-12-02T03:13:54.746Z,1004.19
2018-12-02T03:14:54.730Z,1004.23
2018-12-02T03:15:54.707Z,1004.12
2018-12-02T03:16:54.693Z,1004.20
2018-12-02T03:17:54.732Z,1004.21
2018-12-02T03:18:54.698Z,1004.21
2018-12-02T03:19:54.698Z,1004.15
2018-12-02T03:20:54.675Z,1004.20
2018-12-02T03:21:54.645Z,1004.24
2018-12-02T03:22:54.682Z,1004.15
2018-12-02T03:23:54.624Z,1004.19
2018-12-02T03:24:54.610Z,1004.14
2018-12-02T03:25:54.612Z,1004.13
2018-12-02T03:26:54.607Z,1004.16
2018-12-02T03:27:54.632Z,1004.14
2018-12-02T03:28:54.578Z,1004.08
2018-12-02T03:29:54.563Z,1004.09
2018-12-02T03:30:54.550Z,1004.09
2018-12-02T03:31:54.552Z,1004.10
2018-12-02T03:32:54.554Z,1004.03
2018-12-02T03:33:54.554Z,1004.09
2018-12-02T03:34:54.508Z,1004.05
2018-12-02T03:35:54.505Z,1003.96
2018-12-02T03:36:54.491Z,1004.03
2018-12-02T03:37:54.485Z,1004.07
2018-12-02T03:38:54.493Z,1003.98
2018-12-02T03:39:54.454Z,1003.90
2018-12-02T03:40:54.447Z,1003.94
2018-12-02T03:41:54.426Z,1003.93
2018-12-02T03:42:54.449Z,1003.88
2018-12-02T03:43:54.436Z,1003.88
2018-12-02T03:44:54.402Z,1003.83
2018-12-02T03:45:54.387Z,1003.80
2018-12-02T03:46:54.381Z,1003.87
2018-12-02T03:47:54.372Z,1003.80
2018-12-02T03:48:54.382Z,1003.80
2018-12-02T03:49:54.347Z,1003.78
2018-12-02T03:50:54.331Z,1003.70
2018-12-02T03:51:54.329Z,1003.77
2018-12-02T03:52:54.313Z,1003.78
2018-12-02T03:53:54.339Z,1003.71
2018-12-02T03:54:54.316Z,1003.74
2018-12-02T03:55:54.279Z,1003.70
2018-12-02T03:56:54.271Z,1003.75
2018-12-02T03:57:54.262Z,1003.71
2018-12-02T03:58:54.270Z,1003.70
2018-12-02T03:59:54.241Z,1003.67
2018-12-02T04:00:54.234Z,1003.66
2018-12-02T04:01:54.216Z,1003.59
2018-12-02T04:02:54.207Z,1003.51
2018-12-02T04:03:54.216Z,1003.52
2018-12-02T04:04:54.192Z,1003.46
2018-12-02T04:05:54.180Z,1003.45
2018-12-02T04:06:54.172Z,1003.48
2018-12-02T04:07:54.157Z,1003.49
2018-12-02T04:08:54.159Z,1003.46
2018-12-02T04:09:54.129Z,1003.56
2018-12-02T04:10:54.926Z,1003.47
2018-12-02T04:11:54.121Z,1003.49
2018-12-02T04:12:54.115Z,1003.46
2018-12-02T04:13:54.127Z,1003.43
2018-12-02T04:14:54.078Z,1003.35
2018-12-02T04:15:54.068Z,1003.34
2018-12-02T04:16:54.056Z,1003.34
2018-12-02T04:17:54.059Z,1003.34
2018-12-02T04:18:54.057Z,1003.34
2018-12-02T04:19:54.054Z,1003.29
2018-12-02T04:20:54.029Z,1003.28
2018-12-02T04:21:54.012Z,1003.27
2018-12-02T04:22:53.993Z,1003.24
2018-12-02T04:23:53.994Z,1003.28
2018-12-02T04:24:54.000Z,1003.31
2018-12-02T04:25:53.963Z,1003.22
2018-12-02T04:26:54.002Z,1003.22
2018-12-02T04:27:53.949Z,1003.25
2018-12-02T04:28:53.934Z,1003.20
2018-12-02T04:29:53.942Z,1003.14
2018-12-02T04:30:53.930Z,1003.09
2018-12-02T04:31:53.901Z,1003.07
2018-12-02T04:32:53.889Z,1003.03
2018-12-02T04:33:53.882Z,1002.95
2018-12-02T04:34:53.888Z,1002.92
2018-12-02T04:35:53.869Z,1002.87
2018-12-02T04:36:53.849Z,1002.79
2018-12-02T04:37:53.837Z,1002.74
2018-12-02T04:38:53.826Z,1002.76
2018-12-02T04:39:53.851Z,1002.75
2018-12-02T04:40:53.811Z,1002.78
2018-12-02T04:41:53.797Z,1002.78
2018-12-02T04:42:53.780Z,1002.77
2018-12-02T04:43:53.773Z,1002.75
2018-12-02T04:44:53.776Z,1002.72
2018-12-02T04:45:53.753Z,1002.66
2018-12-02T04:46:53.753Z,1002.65
2018-12-02T04:47:53.751Z,1002.64
2018-12-02T04:48:53.724Z,1002.61
2018-12-02T04:49:53.725Z,1002.57
2018-12-02T04:50:53.706Z,1002.54
2018-12-02T04:51:53.694Z,1002.59
2018-12-02T04:52:53.695Z,1002.55
2018-12-02T04:53:53.668Z,1002.53
2018-12-02T04:54:53.689Z,1002.54
2018-12-02T04:55:53.644Z,1002.50
2018-12-02T04:56:53.640Z,1002.42
2018-12-02T04:57:53.623Z,1002.37
2018-12-02T04:58:53.619Z,1002.37
2018-12-02T04:59:53.630Z,1002.38
2018-12-02T05:00:53.589Z,1002.35
2018-12-02T05:01:53.583Z,1002.40
2018-12-02T05:02:53.570Z,1002.32
2018-12-02T05:03:53.577Z,1002.39
2018-12-02T05:04:53.595Z,1002.41
2018-12-02T05:05:53.549Z,1002.39
2018-12-02T05:06:53.530Z,1002.33
2018-12-02T05:07:53.529Z,1002.40
2018-12-02T05:08:53.531Z,1002.37
2018-12-02T05:09:53.504Z,1002.36
2018-12-02T05:10:53.511Z,1002.31
2018-12-02T05:11:53.474Z,1002.29
2018-12-02T05:12:53.469Z,1002.26
2018-12-02T05:13:53.455Z,1002.27
2018-12-02T05:14:53.461Z,1002.32
2018-12-02T05:15:53.467Z,1002.27
2018-12-02T05:16:53.423Z,1002.36
2018-12-02T05:17:53.415Z,1002.36
2018-12-02T05:18:53.401Z,1002.34
2018-12-02T05:19:53.395Z,1002.31
2018-12-02T05:20:53.405Z,1002.32
2018-12-02T05:21:53.373Z,1002.30
2018-12-02T05:22:53.364Z,1002.27
2018-12-02T05:23:53.350Z,1002.27
2018-12-02T05:24:53.341Z,1002.29
2018-12-02T05:25:53.343Z,1002.33
2018-12-02T05:26:53.321Z,1002.29
2018-12-02T05:27:53.322Z,1002.28
2018-12-02T05:28:53.302Z,1002.28
2018-12-02T05:29:53.289Z,1002.26
2018-12-02T05:30:53.300Z,1002.27
2018-12-02T05:31:53.263Z,1002.28
2018-12-02T05:32:53.262Z,1002.31
2018-12-02T05:33:53.250Z,1002.27
2018-12-02T05:34:53.241Z,1002.30
2018-12-02T05:35:53.255Z,1002.27
2018-12-02T05:36:53.213Z,1002.28
2018-12-02T05:37:53.205Z,1002.27
2018-12-02T05:38:53.191Z,1002.25
2018-12-02T05:39:53.189Z,1002.23
2018-12-02T05:40:53.197Z,1002.21
2018-12-02T05:41:53.153Z,1002.18
2018-12-02T05:42:53.149Z,1002.18
2018-12-02T05:43:53.135Z,1002.17
2018-12-02T05:44:53.137Z,1002.14
2018-12-02T05:45:53.134Z,1002.08
2018-12-02T05:46:53.105Z,1002.02
2018-12-02T05:47:53.105Z,1002.00
2018-12-02T05:48:53.087Z,1002.00
2018-12-02T05:49:53.076Z,1001.95
2018-12-02T05:50:53.083Z,1001.91
2018-12-02T05:51:53.061Z,1001.89
2018-12-02T05:52:53.039Z,1001.90
2018-12-02T05:53:53.025Z,1001.86
2018-12-02T05:54:53.020Z,1001.91
2018-12-02T05:55:53.025Z,1001.90
2018-12-02T05:56:53.013Z,1001.91
2018-12-02T05:57:52.991Z,1001.94
2018-12-02T05:58:52.981Z,1001.88
2018-12-02T05:59:52.967Z,1001.80
2018-12-02T06:00:52.959Z,1001.83
2018-12-02T06:01:52.965Z,1001.83
2018-12-02T06:02:52.942Z,1001.83
2018-12-02T06:03:52.937Z,1001.80
2018-12-02T06:04:52.913Z,1001.74
2018-12-02T06:05:52.945Z,1001.69
2018-12-02T06:06:52.891Z,1001.67
2018-12-02T06:07:52.900Z,1001.63
2018-12-02T06:08:52.873Z,1001.68
2018-12-02T06:09:52.861Z,1001.65
2018-12-02T06:10:52.847Z,1001.66
2018-12-02T06:11:52.845Z,1001.60
2018-12-02T06:12:52.847Z,1001.61
2018-12-02T06:13:52.841Z,1001.63
2018-12-02T06:14:52.809Z,1001.62
2018-12-02T06:15:52.832Z,1001.65
2018-12-02T06:16:52.849Z,1001.61
2018-12-02T06:17:52.825Z,1001.63
2018-12-02T06:18:52.767Z,1001.68
2018-12-02T06:19:52.761Z,1001.67
2018-12-02T06:20:52.752Z,1001.69
2018-12-02T06:21:52.737Z,1001.73
2018-12-02T06:22:52.761Z,1001.74
2018-12-02T06:23:52.711Z,1001.73
2018-12-02T06:24:52.702Z,1001.72
2018-12-02T06:25:52.695Z,1001.74
2018-12-02T06:26:52.687Z,1001.76
2018-12-02T06:27:52.691Z,1001.76
2018-12-02T06:28:52.667Z,1001.78
2018-12-02T06:29:52.651Z,1001.81
2018-12-02T06:30:52.646Z,1001.85
2018-12-02T06:31:52.643Z,1001.87
2018-12-02T06:32:52.642Z,1001.86
2018-12-02T06:33:52.651Z,1001.82
2018-12-02T06:34:52.597Z,1001.90
2018-12-02T06:35:52.587Z,1001.88
2018-12-02T06:36:52.602Z,1001.89
2018-12-02T06:37:52.585Z,1001.81
2018-12-02T06:38:52.553Z,1001.76
2018-12-02T06:39:52.542Z,1001.72
2018-12-02T06:40:52.538Z,1001.69
2018-12-02T06:41:52.543Z,1001.71
2018-12-02T06:42:52.511Z,1001.65
2018-12-02T06:43:52.533Z,1001.65
2018-12-02T06:44:52.502Z,1001.63
2018-12-02T06:45:52.476Z,1001.55
2018-12-02T06:46:52.473Z,1001.55
2018-12-02T06:47:52.459Z,1001.55
2018-12-02T06:48:52.466Z,1001.57
2018-12-02T06:49:52.439Z,1001.56
2018-12-02T06:50:52.435Z,1001.63
2018-12-02T06:51:52.435Z,1001.61
2018-12-02T06:52:52.405Z,1001.65
2018-12-02T06:53:52.399Z,1001.68
2018-12-02T06:54:52.409Z,1001.63
2018-12-02T06:55:52.371Z,1001.71
2018-12-02T06:56:52.367Z,1001.73
2018-12-02T06:57:52.358Z,1001.71
2018-12-02T06:58:52.341Z,1001.65
2018-12-02T06:59:52.356Z,1001.59
2018-12-02T07:00:52.323Z,1001.55
2018-12-02T07:01:52.328Z,1001.55
2018-12-02T07:02:52.311Z,1001.52
2018-12-02T07:03:52.289Z,1001.54
2018-12-02T07:04:52.281Z,1001.49
2018-12-02T07:05:52.271Z,1001.55
2018-12-02T07:06:52.285Z,1001.57
2018-12-02T07:07:52.251Z,1001.49
2018-12-02T07:08:52.234Z,1001.52
2018-12-02T07:09:52.232Z,1001.46
2018-12-02T07:10:52.235Z,1001.45
2018-12-02T07:11:59.504Z,1001.35
2018-12-02T07:12:52.195Z,1001.24
2018-12-02T07:13:52.190Z,1001.23
2018-12-02T07:14:52.172Z,1001.20
2018-12-02T07:15:52.158Z,1001.21
2018-12-02T07:16:52.171Z,1001.27
2018-12-02T07:17:52.162Z,1001.27
2018-12-02T07:18:52.128Z,1001.26
2018-12-02T07:19:52.121Z,1001.32
2018-12-02T07:20:52.111Z,1001.33
2018-12-02T07:21:52.149Z,1001.30
2018-12-02T07:22:52.092Z,1001.27
2018-12-02T07:23:52.087Z,1001.21
2018-12-02T07:24:52.069Z,1001.16
2018-12-02T07:25:52.060Z,1001.06
2018-12-02T07:26:52.071Z,1001.05
2018-12-02T07:27:52.034Z,1001.02
2018-12-02T07:28:52.028Z,1001.07
2018-12-02T07:29:52.032Z,1001.13
2018-12-02T07:30:52.008Z,1001.13
2018-12-02T07:31:52.029Z,1000.98
2018-12-02T07:32:52.008Z,1000.94
2018-12-02T07:33:51.975Z,1000.85
2018-12-02T07:34:51.968Z,1000.93
2018-12-02T07:35:51.974Z,1000.93
2018-12-02T07:36:51.977Z,1000.92
2018-12-02T07:37:51.945Z,1000.91
2018-12-02T07:38:51.938Z,1000.89
2018-12-02T07:39:51.929Z,1000.87
2018-12-02T07:40:51.906Z,1000.87
2018-12-02T07:41:51.910Z,1000.89
2018-12-02T07:42:51.889Z,1000.85
2018-12-02T07:43:51.876Z,1000.82
2018-12-02T07:44:51.867Z,1000.64
2018-12-02T07:45:51.848Z,1000.63
2018-12-02T07:46:51.848Z,1000.61
2018-12-02T07:47:51.851Z,1000.62
2018-12-02T07:48:51.818Z,1000.57
2018-12-02T07:49:51.812Z,1000.60
2018-12-02T07:50:51.806Z,1000.57
2018-12-02T07:51:51.785Z,1000.59
2018-12-02T07:52:51.793Z,1000.57
2018-12-02T07:53:51.754Z,1000.61
2018-12-02T07:54:51.758Z,1000.65
2018-12-02T07:55:51.751Z,1000.59
2018-12-02T07:56:51.730Z,1000.59
2018-12-02T07:57:51.736Z,1000.56
2018-12-02T07:58:51.710Z,1000.54
2018-12-02T07:59:51.698Z,1000.60
2018-12-02T08:00:51.694Z,1000.64
2018-12-02T08:01:51.699Z,1000.63
2018-12-02T08:02:51.710Z,1000.62
2018-12-02T08:03:51.658Z,1000.60
2018-12-02T08:04:51.646Z,1000.63
2018-12-02T08:05:51.630Z,1000.54
2018-12-02T08:06:51.617Z,1000.53
2018-12-02T08:07:51.632Z,1000.55
2018-12-02T08:08:51.708Z,1000.55
2018-12-02T08:09:51.596Z,1000.48
2018-12-02T08:10:51.584Z,1000.44
2018-12-02T08:11:51.568Z,1000.42
2018-12-02T08:12:51.572Z,1000.47
2018-12-02T08:13:51.577Z,1000.40
2018-12-02T08:14:51.539Z,1000.39
2018-12-02T08:15:51.556Z,1000.41
2018-12-02T08:16:51.525Z,1000.41
2018-12-02T08:17:51.507Z,1000.34
2018-12-02T08:18:51.512Z,1000.38
2018-12-02T08:19:51.508Z,1000.38
2018-12-02T08:20:51.478Z,1000.35
2018-12-02T08:21:51.465Z,1000.30
2018-12-02T08:22:51.763Z,1000.28
2018-12-02T08:23:51.463Z,1000.33
2018-12-02T08:24:51.438Z,1000.21
2018-12-02T08:25:51.417Z,1000.19
2018-12-02T08:26:51.408Z,1000.24
2018-12-02T08:27:51.395Z,1000.29
2018-12-02T08:28:51.475Z,1000.19
2018-12-02T08:29:51.376Z,1000.23
2018-12-02T08:30:51.385Z,1000.19
2018-12-02T08:31:51.354Z,1000.22
2018-12-02T08:32:51.350Z,1000.19
2018-12-02T08:33:51.333Z,1000.24
2018-12-02T08:34:51.386Z,1000.19
2018-12-02T08:35:51.315Z,1000.19
2018-12-02T08:36:51.302Z,1000.17
2018-12-02T08:37:51.296Z,1000.20
2018-12-02T08:38:51.287Z,1000.15
2018-12-02T08:39:51.280Z,1000.13
2018-12-02T08:40:51.254Z,1000.12
2018-12-02T08:41:51.247Z,1000.12
2018-12-02T08:42:51.256Z,1000.10
2018-12-02T08:43:51.234Z,1000.07
2018-12-02T08:44:51.239Z,1000.09
2018-12-02T08:45:51.213Z,1000.13
2018-12-02T08:46:51.206Z,1000.08
2018-12-02T08:47:51.198Z,1000.13
2018-12-02T08:48:51.167Z,1000.08
2018-12-02T08:49:51.179Z,1000.08
2018-12-02T08:50:51.153Z,1000.07
2018-12-02T08:51:51.152Z,1000.10
2018-12-02T08:52:51.131Z,1000.08
2018-12-02T08:53:51.130Z,1000.06
2018-12-02T08:54:51.138Z,1000.08
2018-12-02T08:55:51.103Z,1000.08
2018-12-02T08:56:51.090Z,1000.06
2018-12-02T08:57:51.077Z,1000.07
2018-12-02T08:58:51.072Z,1000.10
2018-12-02T08:59:51.074Z,1000.06
2018-12-02T09:00:51.053Z,1000.04
2018-12-02T09:01:51.041Z,1000.00
2018-12-02T09:02:51.029Z,1000.01
2018-12-02T09:03:51.011Z,1000.02
2018-12-02T09:04:51.030Z,1000.01
2018-12-02T09:05:51.003Z,999.97
2018-12-02T09:06:50.981Z,999.94
2018-12-02T09:07:50.981Z,999.93
2018-12-02T09:08:50.959Z,999.84
2018-12-02T09:09:50.995Z,999.90
2018-12-02T09:10:50.937Z,999.90
2018-12-02T09:11:50.921Z,999.83
2018-12-02T09:12:50.924Z,999.89
2018-12-02T09:13:50.905Z,999.84
2018-12-02T09:14:50.934Z,999.84
2018-12-02T09:15:50.883Z,999.81
2018-12-02T09:16:50.882Z,999.83
2018-12-02T09:17:50.861Z,999.87
2018-12-02T09:18:50.851Z,999.75
2018-12-02T09:19:50.867Z,999.78
2018-12-02T09:20:50.864Z,999.71
2018-12-02T09:21:50.821Z,999.68
2018-12-02T09:22:50.811Z,999.72
2018-12-02T09:23:50.798Z,999.69
2018-12-02T09:24:50.805Z,999.70
2018-12-02T09:25:52.290Z,999.73
2018-12-02T09:26:50.777Z,999.73
2018-12-02T09:27:50.757Z,999.70
2018-12-02T09:28:50.747Z,999.72
2018-12-02T09:29:50.785Z,999.65
2018-12-02T09:30:50.747Z,999.59
2018-12-02T09:31:50.722Z,999.58
2018-12-02T09:32:50.702Z,999.57
2018-12-02T09:33:50.697Z,999.48
2018-12-02T09:34:50.696Z,999.51
2018-12-02T09:35:50.672Z,999.51
2018-12-02T09:36:50.688Z,999.61
2018-12-02T09:37:50.668Z,999.56
2018-12-02T09:38:50.638Z,999.54
2018-12-02T09:39:50.643Z,999.56
2018-12-02T09:40:50.627Z,999.51
2018-12-02T09:41:51.003Z,999.53
2018-12-02T09:42:50.598Z,999.52
2018-12-02T09:43:50.584Z,999.45
2018-12-02T09:44:50.576Z,999.43
2018-12-02T09:45:50.580Z,999.45
2018-12-02T09:46:50.554Z,999.38
2018-12-02T09:47:50.593Z,999.39
2018-12-02T09:48:50.529Z,999.34
2018-12-02T09:49:50.528Z,999.35
2018-12-02T09:50:50.534Z,999.29
2018-12-02T09:51:50.502Z,999.33
2018-12-02T09:52:50.512Z,999.28
2018-12-02T09:53:50.481Z,999.21
2018-12-02T09:54:50.465Z,999.24
2018-12-02T09:55:50.451Z,999.27
2018-12-02T09:56:50.451Z,999.23
2018-12-02T09:57:50.462Z,999.19
2018-12-02T09:58:50.425Z,999.18
2018-12-02T09:59:50.408Z,999.11
2018-12-02T10:00:50.431Z,999.12
2018-12-02T10:01:50.390Z,999.11
2018-12-02T10:02:50.393Z,999.09
2018-12-02T10:03:50.421Z,999.06
2018-12-02T10:04:50.390Z,999.07
2018-12-02T10:05:50.354Z,999.08
2018-12-02T10:06:50.342Z,999.04
2018-12-02T10:07:50.324Z,999.03
2018-12-02T10:08:50.348Z,999.00
2018-12-02T10:09:50.323Z,999.01
2018-12-02T10:10:50.311Z,998.98
2018-12-02T10:11:50.291Z,998.96
2018-12-02T10:12:50.273Z,998.94
2018-12-02T10:13:50.310Z,998.88
2018-12-02T10:14:50.267Z,998.91
2018-12-02T10:15:50.264Z,998.88
2018-12-02T10:16:50.248Z,998.90
2018-12-02T10:17:50.222Z,998.88
2018-12-02T10:18:50.222Z,998.85
2018-12-02T10:19:50.200Z,998.83
2018-12-02T10:20:50.223Z,998.86
2018-12-02T10:21:50.180Z,998.82
2018-12-02T10:22:50.207Z,998.79
2018-12-02T10:23:50.156Z,998.78
2018-12-02T10:24:50.156Z,998.73
2018-12-02T10:25:50.158Z,998.75
2018-12-02T10:26:50.138Z,998.72
2018-12-02T10:27:50.121Z,998.74
2018-12-02T10:28:50.108Z,998.69
2018-12-02T10:29:50.111Z,998.69
2018-12-02T10:30:50.101Z,998.71
2018-12-02T10:31:50.079Z,998.62
2018-12-02T10:32:50.071Z,998.68
2018-12-02T10:33:50.063Z,998.63
2018-12-02T10:34:50.039Z,998.61
2018-12-02T10:35:50.058Z,998.63
2018-12-02T10:36:50.022Z,998.61
2018-12-02T10:37:50.017Z,998.59
2018-12-02T10:38:50.019Z,998.51
2018-12-02T10:39:50.014Z,998.54
2018-12-02T10:40:50.000Z,998.56
2018-12-02T10:41:49.969Z,998.54
2018-12-02T10:42:49.964Z,998.53
2018-12-02T10:43:49.946Z,998.52
2018-12-02T10:44:49.950Z,998.47
2018-12-02T10:45:49.970Z,998.45
2018-12-02T10:46:49.913Z,998.50
2018-12-02T10:47:49.908Z,998.41
2018-12-02T10:48:49.896Z,998.37
2018-12-02T10:49:49.891Z,998.38
2018-12-02T10:50:49.868Z,998.33
2018-12-02T10:51:49.913Z,998.33
2018-12-02T10:52:49.858Z,998.34
2018-12-02T10:53:49.843Z,998.34
2018-12-02T10:54:49.838Z,998.31
2018-12-02T10:55:49.816Z,998.25
2018-12-02T10:56:49.825Z,998.27
2018-12-02T10:57:49.808Z,998.24
2018-12-02T10:58:49.794Z,998.23
2018-12-02T10:59:49.775Z,998.20
2018-12-02T11:00:49.781Z,998.21
2018-12-02T11:01:49.754Z,998.17
2018-12-02T11:02:49.771Z,998.20
2018-12-02T11:03:49.738Z,998.17
2018-12-02T11:04:49.728Z,998.21
2018-12-02T11:05:49.712Z,998.17
2018-12-02T11:06:49.698Z,998.18
2018-12-02T11:07:49.708Z,998.13
2018-12-02T11:08:49.698Z,998.08
2018-12-02T11:09:49.670Z,998.08
2018-12-02T11:10:49.674Z,998.05
2018-12-02T11:11:49.649Z,998.03
2018-12-02T11:12:49.656Z,998.07
2018-12-02T11:13:49.635Z,997.96
2018-12-02T11:14:49.616Z,998.10
2018-12-02T11:15:49.607Z,997.95
2018-12-02T11:16:49.593Z,997.99
2018-12-02T11:17:49.611Z,998.01
2018-12-02T11:18:49.629Z,997.91
2018-12-02T11:19:49.575Z,998.02
2018-12-02T11:20:49.549Z,997.97
2018-12-02T11:21:49.550Z,997.93
2018-12-02T11:22:49.530Z,997.96
2018-12-02T11:23:49.536Z,997.92
2018-12-02T11:24:49.506Z,997.89
2018-12-02T11:25:49.510Z,997.88
2018-12-02T11:26:49.486Z,997.81
2018-12-02T11:27:49.473Z,997.83
2018-12-02T11:28:49.533Z,997.79
2018-12-02T11:29:49.452Z,997.80
2018-12-02T11:30:49.456Z,997.78
2018-12-02T11:31:49.442Z,997.83
2018-12-02T11:32:49.421Z,997.74
2018-12-02T11:33:49.463Z,997.75
2018-12-02T11:34:49.404Z,997.76
2018-12-02T11:35:49.394Z,997.77
2018-12-02T11:36:49.396Z,997.71
2018-12-02T11:37:49.370Z,997.74
2018-12-02T11:38:49.366Z,997.67
2018-12-02T11:39:49.370Z,997.72
2018-12-02T11:40:49.343Z,997.71
2018-12-02T11:41:49.323Z,997.73
2018-12-02T11:42:49.316Z,997.75
2018-12-02T11:43:49.301Z,997.73
2018-12-02T11:44:49.333Z,997.71
2018-12-02T11:45:49.287Z,997.67
2018-12-02T11:46:49.305Z,997.66
2018-12-02T11:47:49.275Z,997.70
2018-12-02T11:48:49.295Z,997.66
2018-12-02T11:49:49.238Z,997.66
2018-12-02T11:50:49.231Z,997.65
2018-12-02T11:51:49.250Z,997.65
2018-12-02T11:52:49.214Z,997.65
2018-12-02T11:53:49.218Z,997.53
2018-12-02T11:54:49.196Z,997.55
2018-12-02T11:55:49.202Z,997.59
2018-12-02T11:56:49.160Z,997.51
2018-12-02T11:57:49.157Z,997.50
2018-12-02T11:58:49.142Z,997.52
2018-12-02T11:59:49.135Z,997.51
2018-12-02T12:00:49.149Z,997.46
2018-12-02T12:01:49.115Z,997.47
2018-12-02T12:02:49.104Z,997.47
2018-12-02T12:04:50.244Z,997.39
2018-12-02T12:05:49.123Z,997.42
2018-12-02T12:06:49.057Z,997.44
2018-12-02T12:07:49.056Z,997.43
2018-12-02T12:08:49.037Z,997.36
2018-12-02T12:09:49.033Z,997.44
2018-12-02T12:10:49.055Z,997.33
2018-12-02T12:11:49.021Z,997.37
2018-12-02T12:12:48.995Z,997.39
2018-12-02T12:13:48.980Z,997.38